createdAt,value
2022-08-11T00:00:06.328Z,101715.19
2022-08-11T00:02:35.755Z,101711.13
2022-08-11T00:05:12.494Z,101713.09
2022-08-11T00:07:56.127Z,101713.31
2022-08-11T00:10:25.519Z,101710.53
2022-08-11T00:12:56.285Z,101707.78
2022-08-11T00:15:28.368Z,101714.81
2022-08-11T00:18:00.048Z,101712.16
2022-08-11T00:20:36.433Z,101720.03
2022-08-11T00:23:08.584Z,101710.75
2022-08-11T00:25:46.652Z,101711.91
2022-08-11T00:28:31.323Z,101710.28
2022-08-11T00:31:01.429Z,101713.63
2022-08-11T00:33:45.446Z,101705.03
2022-08-11T00:36:25.349Z,101705.13
2022-08-11T00:38:54.405Z,101707.84
2022-08-11T00:41:47.285Z,101706.38
2022-08-11T00:44:23.176Z,101706.84
2022-08-11T00:47:18.437Z,101705.41
2022-08-11T00:50:22.140Z,101704.38
2022-08-11T00:53:07.430Z,101708.75
2022-08-11T00:55:47.185Z,101712.13
2022-08-11T00:58:37.521Z,101704.00
2022-08-11T01:01:10.442Z,101707.31
2022-08-11T01:04:14.536Z,101697.72
2022-08-11T01:06:50.067Z,101700.25
2022-08-11T01:09:47.767Z,101703.38
2022-08-11T01:12:23.024Z,101707.50
2022-08-11T01:15:40.972Z,101701.00
2022-08-11T01:18:41.424Z,101702.50
2022-08-11T01:21:32.054Z,101708.47
2022-08-11T01:24:13.541Z,101705.91
2022-08-11T01:26:59.112Z,101701.81
2022-08-11T01:29:58.747Z,101702.50
2022-08-11T01:32:43.825Z,101700.47
2022-08-11T01:35:29.060Z,101703.56
2022-08-11T01:38:26.927Z,101705.88
2022-08-11T01:41:12.645Z,101711.88
2022-08-11T01:44:32.791Z,101704.78
2022-08-11T01:47:52.651Z,101701.94
2022-08-11T01:50:37.586Z,101699.53
2022-08-11T01:53:12.857Z,101702.84
2022-08-11T01:55:53.329Z,101708.38
2022-08-11T01:58:58.213Z,101706.59
2022-08-11T02:01:42.616Z,101710.72
2022-08-11T02:05:06.630Z,101707.69
2022-08-11T02:07:36.478Z,101709.75
2022-08-11T02:10:35.571Z,101704.50
2022-08-11T02:13:37.021Z,101701.44
2022-08-11T02:16:41.198Z,101698.66
2022-08-11T02:19:35.602Z,101701.97
2022-08-11T02:22:39.344Z,101705.06
2022-08-11T02:25:20.919Z,101704.66
2022-08-11T02:28:01.961Z,101709.59
2022-08-11T02:31:08.911Z,101709.19
2022-08-11T02:34:05.861Z,101711.72
2022-08-11T02:36:46.795Z,101704.38
2022-08-11T02:39:18.444Z,101707.25
2022-08-11T02:42:34.860Z,101706.66
2022-08-11T02:45:11.750Z,101709.53
2022-08-11T02:48:34.565Z,101705.88
2022-08-11T02:51:01.022Z,101710.00
2022-08-11T02:53:58.055Z,101711.47
2022-08-11T02:57:05.093Z,101715.34
2022-08-11T02:59:56.740Z,101713.13
2022-08-11T03:02:31.437Z,101716.44
2022-08-11T03:05:01.031Z,101711.53
2022-08-11T03:07:52.778Z,101709.31
2022-08-11T03:10:24.084Z,101711.38
2022-08-11T03:13:25.287Z,101706.25
2022-08-11T03:16:34.561Z,101705.28
2022-08-11T03:19:23.360Z,101710.22
2022-08-11T03:22:09.829Z,101707.78
2022-08-11T03:24:54.697Z,101714.53
2022-08-11T03:27:36.726Z,101711.47
2022-08-11T03:30:22.266Z,101708.41
2022-08-11T03:33:42.529Z,101706.78
2022-08-11T03:36:33.282Z,101702.13
2022-08-11T03:39:56.760Z,101705.00
2022-08-11T03:42:29.743Z,101705.41
2022-08-11T03:45:05.210Z,101707.66
2022-08-11T03:48:02.694Z,101705.22
2022-08-11T03:50:57.985Z,101700.34
2022-08-11T03:53:56.624Z,101703.41
2022-08-11T03:56:38.510Z,101702.19
2022-08-11T03:59:17.427Z,101701.81
2022-08-11T04:02:05.936Z,101703.66
2022-08-11T04:04:58.022Z,101706.53
2022-08-11T04:07:39.729Z,101702.66
2022-08-11T04:10:33.541Z,101705.53
2022-08-11T04:13:08.919Z,101708.56
2022-08-11T04:16:11.765Z,101705.53
2022-08-11T04:19:09.711Z,101700.44
2022-08-11T04:21:57.998Z,101701.47
2022-08-11T04:24:39.529Z,101702.88
2022-08-11T04:27:19.255Z,101700.44
2022-08-11T04:30:05.510Z,101708.63
2022-08-11T04:32:47.380Z,101709.03
2022-08-11T04:35:13.840Z,101703.13
2022-08-11T04:37:51.242Z,101702.53
2022-08-11T04:40:25.719Z,101696.59
2022-08-11T04:43:23.492Z,101697.63
2022-08-11T04:46:12.139Z,101701.31
2022-08-11T04:49:33.129Z,101705.59
2022-08-11T04:52:38.496Z,101705.00
2022-08-11T04:56:00.844Z,101708.03
2022-08-11T04:59:02.259Z,101702.75
2022-08-11T05:01:41.070Z,101710.09
2022-08-11T05:05:04.343Z,101712.75
2022-08-11T05:08:23.839Z,101715.19
2022-08-11T05:11:18.705Z,101706.22
2022-08-11T05:14:06.767Z,101707.66
2022-08-11T05:17:13.473Z,101712.06
2022-08-11T05:20:07.063Z,101715.47
2022-08-11T05:22:53.130Z,101717.63
2022-08-11T05:26:44.378Z,101723.91
2022-08-11T05:29:19.882Z,101731.78
2022-08-11T05:32:14.965Z,101728.41
2022-08-11T05:34:54.857Z,101740.94
2022-08-11T05:37:34.239Z,101733.47
2022-08-11T05:40:30.266Z,101730.88
2022-08-11T05:43:21.392Z,101736.38
2022-08-11T05:46:25.254Z,101732.84
2022-08-11T05:49:11.418Z,101736.16
2022-08-11T05:52:05.711Z,101735.97
2022-08-11T05:54:59.437Z,101741.13
2022-08-11T05:57:48.919Z,101738.66
2022-08-11T06:00:19.395Z,101739.47
2022-08-11T06:02:50.896Z,101742.13
2022-08-11T06:05:32.518Z,101745.91
2022-08-11T06:08:09.211Z,101738.88
2022-08-11T06:10:39.093Z,101743.28
2022-08-11T06:13:07.339Z,101735.19
2022-08-11T06:15:44.832Z,101737.75
2022-08-11T06:18:13.050Z,101741.78
2022-08-11T06:20:48.605Z,101736.59
2022-08-11T06:23:19.375Z,101734.03
2022-08-11T06:25:47.104Z,101739.56
2022-08-11T06:28:20.543Z,101735.34
2022-08-11T06:30:48.901Z,101731.06
2022-08-11T06:33:29.501Z,101730.63
2022-08-11T06:36:15.467Z,101738.88
2022-08-11T06:39:15.578Z,101737.38
2022-08-11T06:42:03.837Z,101738.06
2022-08-11T06:44:44.368Z,101738.16
2022-08-11T06:47:18.041Z,101736.94
2022-08-11T06:50:05.609Z,101735.63
2022-08-11T06:52:36.377Z,101737.16
2022-08-11T06:55:55.680Z,101730.53
2022-08-11T06:58:16.498Z,101732.41
2022-08-11T07:00:45.024Z,101731.69
2022-08-11T07:03:16.677Z,101737.13
2022-08-11T07:05:55.590Z,101737.63
2022-08-11T07:09:18.667Z,101743.25
2022-08-11T07:12:31.986Z,101740.47
2022-08-11T07:15:21.978Z,101743.38
2022-08-11T07:18:11.678Z,101735.97
2022-08-11T07:21:02.072Z,101750.59
2022-08-11T07:23:52.529Z,101738.19
2022-08-11T07:26:40.271Z,101744.69
2022-08-11T07:29:09.905Z,101749.53
2022-08-11T07:31:36.533Z,101741.38
2022-08-11T07:34:10.249Z,101735.38
2022-08-11T07:36:49.307Z,101740.59
2022-08-11T07:39:22.409Z,101735.59
2022-08-11T07:41:51.909Z,101732.66
2022-08-11T07:44:19.078Z,101735.41
2022-08-11T07:47:07.133Z,101728.16
2022-08-11T07:49:56.758Z,101730.88
2022-08-11T07:52:32.197Z,101736.25
2022-08-11T07:55:05.072Z,101727.16
2022-08-11T07:58:14.479Z,101732.38
2022-08-11T08:01:10.245Z,101728.31
2022-08-11T08:04:02.665Z,101730.34
2022-08-11T08:06:50.842Z,101726.16
2022-08-11T08:09:39.915Z,101728.09
2022-08-11T08:12:26.787Z,101725.81
2022-08-11T08:15:13.715Z,101731.69
2022-08-11T08:18:20.963Z,101721.41
2022-08-11T08:20:50.035Z,101723.84
2022-08-11T08:23:18.478Z,101725.13
2022-08-11T08:25:45.905Z,101728.75
2022-08-11T08:28:17.624Z,101725.81
2022-08-11T08:30:49.464Z,101733.53
2022-08-11T08:33:36.952Z,101734.34
2022-08-11T08:36:12.307Z,101732.13
2022-08-11T08:38:50.149Z,101731.00
2022-08-11T08:41:36.327Z,101736.50
2022-08-11T08:46:58.641Z,101732.38
2022-08-11T08:49:40.488Z,101736.44
2022-08-11T08:52:30.487Z,101735.31
2022-08-11T08:55:04.819Z,101740.25
2022-08-11T08:57:39.354Z,101742.03
2022-08-11T09:00:08.855Z,101736.69
2022-08-11T09:02:39.864Z,101739.03
2022-08-11T09:05:09.024Z,101736.38
2022-08-11T09:07:39.877Z,101735.13
2022-08-11T09:10:09.287Z,101738.66
2022-08-11T09:12:39.258Z,101735.72
2022-08-11T09:15:09.114Z,101740.69
2022-08-11T09:17:37.663Z,101740.31
2022-08-11T09:20:09.691Z,101733.84
2022-08-11T09:23:41.324Z,101733.78
2022-08-11T09:26:04.912Z,101737.13
2022-08-11T09:28:32.384Z,101725.59
2022-08-11T09:31:01.592Z,101726.75
2022-08-11T09:33:30.415Z,101730.56
2022-08-11T09:35:58.286Z,101726.13
2022-08-11T09:38:49.491Z,101725.56
2022-08-11T09:41:17.294Z,101720.81
2022-08-11T09:44:04.536Z,101721.28
2022-08-11T09:46:33.107Z,101724.22
2022-08-11T09:49:02.164Z,101726.44
2022-08-11T09:51:32.150Z,101717.13
2022-08-11T09:54:07.444Z,101716.00
2022-08-11T09:56:53.162Z,101711.81
2022-08-11T09:59:22.399Z,101707.91
2022-08-11T10:02:00.480Z,101703.59
2022-08-11T10:04:46.527Z,101716.16
2022-08-11T10:07:19.345Z,101702.91
2022-08-11T10:09:56.296Z,101708.94
2022-08-11T10:12:25.106Z,101709.28
2022-08-11T10:15:17.434Z,101703.75
2022-08-11T10:18:07.588Z,101694.16
2022-08-11T10:20:37.202Z,101692.16
2022-08-11T10:23:23.000Z,101688.56
2022-08-11T10:26:09.351Z,101691.63
2022-08-11T10:28:50.065Z,101690.38
2022-08-11T10:31:57.857Z,101687.16
2022-08-11T10:34:29.056Z,101672.19
2022-08-11T10:36:58.100Z,101675.66
2022-08-11T10:39:26.857Z,101672.47
2022-08-11T10:42:21.053Z,101667.75
2022-08-11T10:44:58.816Z,101666.16
2022-08-11T10:47:34.905Z,101661.31
2022-08-11T10:50:31.134Z,101652.88
2022-08-11T10:53:18.529Z,101654.31
2022-08-11T10:58:50.920Z,101651.66
2022-08-11T11:01:26.113Z,101649.75
2022-08-11T11:04:00.398Z,101643.56
2022-08-11T11:06:44.686Z,101631.66
2022-08-11T11:09:25.888Z,101631.75
2022-08-11T11:12:18.734Z,101626.13
2022-08-11T11:15:06.811Z,101638.00
2022-08-11T11:17:56.086Z,101622.63
2022-08-11T11:20:53.999Z,101628.59
2022-08-11T11:23:24.037Z,101628.88
2022-08-11T11:26:13.122Z,101618.34
2022-08-11T11:29:07.436Z,101624.00
2022-08-11T11:31:52.355Z,101611.41
2022-08-11T11:34:53.758Z,101607.59
2022-08-11T11:37:25.701Z,101603.06
2022-08-11T11:39:54.882Z,101606.53
2022-08-11T11:42:22.085Z,101599.75
2022-08-11T11:44:49.414Z,101602.00
2022-08-11T11:47:21.720Z,101603.81
2022-08-11T11:49:49.586Z,101599.28
2022-08-11T11:52:18.953Z,101587.13
2022-08-11T11:54:52.120Z,101597.00
2022-08-11T11:57:39.424Z,101582.59
2022-08-11T12:00:33.336Z,101582.53
2022-08-11T12:03:06.734Z,101592.66
2022-08-11T12:05:35.849Z,101577.88
2022-08-11T12:08:14.394Z,101574.91
2022-08-11T12:11:11.713Z,101584.78
2022-08-11T12:13:41.012Z,101575.59
2022-08-11T12:16:33.539Z,101572.06
2022-08-11T12:18:59.697Z,101568.19
2022-08-11T12:21:30.089Z,101568.63
2022-08-11T12:24:19.007Z,101557.59
2022-08-11T12:27:14.782Z,101557.75
2022-08-11T12:29:41.377Z,101556.34
2022-08-11T12:32:11.100Z,101544.59
2022-08-11T12:34:37.782Z,101547.31
2022-08-11T12:37:13.521Z,101542.75
2022-08-11T12:40:16.170Z,101539.53
2022-08-11T12:43:21.220Z,101529.09
2022-08-11T12:45:54.073Z,101526.38
2022-08-11T12:48:59.227Z,101522.38
2022-08-11T12:52:11.160Z,101509.38
2022-08-11T12:54:52.069Z,101515.28
2022-08-11T12:57:43.080Z,101507.81
2022-08-11T13:00:29.461Z,101511.34
2022-08-11T13:03:15.797Z,101506.03
2022-08-11T13:05:44.799Z,101503.19
2022-08-11T13:08:16.733Z,101506.72
2022-08-11T13:11:03.453Z,101504.63
2022-08-11T13:13:54.781Z,101491.03
2022-08-11T13:16:18.564Z,101494.91
2022-08-11T13:18:45.344Z,101496.09
2022-08-11T13:21:20.603Z,101485.22
2022-08-11T13:24:01.628Z,101488.50
2022-08-11T13:26:48.587Z,101494.50
2022-08-11T13:29:25.310Z,101484.19
2022-08-11T13:31:55.965Z,101487.63
2022-08-11T13:34:25.394Z,101482.50
2022-08-11T13:36:55.605Z,101477.72
2022-08-11T13:39:25.183Z,101475.75
2022-08-11T13:41:59.327Z,101474.16
2022-08-11T13:44:28.349Z,101473.75
2022-08-11T13:47:01.517Z,101462.91
2022-08-11T13:49:30.778Z,101472.09
2022-08-11T13:51:59.065Z,101462.75
2022-08-11T13:54:30.071Z,101457.34
2022-08-11T13:57:00.622Z,101459.06
2022-08-11T13:59:31.147Z,101458.78
2022-08-11T14:02:28.729Z,101463.94
2022-08-11T14:04:56.086Z,101455.28
2022-08-11T14:07:25.721Z,101450.28
2022-08-11T14:09:59.844Z,101448.28
2022-08-11T14:12:49.992Z,101447.19
2022-08-11T14:15:31.295Z,101451.47
2022-08-11T14:18:03.224Z,101444.34
2022-08-11T14:20:50.706Z,101436.75
2022-08-11T14:23:19.397Z,101439.44
2022-08-11T14:26:05.213Z,101439.38
2022-08-11T14:28:40.225Z,101428.19
2022-08-11T14:31:12.003Z,101434.34
2022-08-11T14:34:00.377Z,101427.31
2022-08-11T14:36:31.020Z,101426.69
2022-08-11T14:38:58.203Z,101417.63
2022-08-11T14:42:11.065Z,101424.41
2022-08-11T14:44:52.953Z,101419.59
2022-08-11T14:47:24.895Z,101412.88
2022-08-11T14:50:09.441Z,101410.72
2022-08-11T14:52:38.848Z,101409.47
2022-08-11T14:55:26.287Z,101413.78
2022-08-11T14:57:55.058Z,101408.16
2022-08-11T15:00:26.565Z,101423.13
2022-08-11T15:03:10.455Z,101422.22
2022-08-11T15:05:55.823Z,101406.13
2022-08-11T15:08:47.650Z,101406.06
2022-08-11T15:15:04.681Z,101391.25
2022-08-11T15:17:40.904Z,101388.66
2022-08-11T15:20:33.959Z,101388.03
2022-08-11T15:23:19.310Z,101377.47
2022-08-11T15:25:49.956Z,101382.88
2022-08-11T15:28:37.462Z,101386.25
2022-08-11T15:31:22.607Z,101373.13
2022-08-11T15:34:12.001Z,101373.31
2022-08-11T15:36:59.340Z,101377.16
2022-08-11T15:40:31.421Z,101382.63
2022-08-11T15:43:29.211Z,101368.72
2022-08-11T15:46:02.176Z,101363.81
2022-08-11T15:48:43.265Z,101367.09
2022-08-11T15:51:25.137Z,101360.19
2022-08-11T15:53:56.726Z,101355.66
2022-08-11T15:56:26.681Z,101357.09
2022-08-11T15:59:41.700Z,101348.00
2022-08-11T16:02:28.147Z,101353.03
2022-08-11T16:04:56.750Z,101349.59
2022-08-11T16:07:29.303Z,101349.78
2022-08-11T16:10:09.424Z,101356.41
2022-08-11T16:13:06.941Z,101346.50
2022-08-11T16:24:00.839Z,101342.94
2022-08-11T16:27:09.028Z,101335.78
2022-08-11T16:29:18.146Z,101335.41
2022-08-11T16:32:06.032Z,101343.88
2022-08-11T16:34:52.433Z,101345.31
2022-08-11T16:41:53.106Z,101342.28
2022-08-11T16:44:39.844Z,101343.25
2022-08-11T16:47:09.964Z,101338.88
2022-08-11T16:49:39.491Z,101337.56
2022-08-11T16:52:11.005Z,101335.72
2022-08-11T16:54:44.371Z,101337.06
2022-08-11T16:57:46.320Z,101332.50
2022-08-11T17:00:16.296Z,101331.47
2022-08-11T17:03:12.239Z,101327.16
2022-08-11T17:06:02.944Z,101325.88
2022-08-11T17:08:57.149Z,101329.00
2022-08-11T17:11:46.700Z,101333.25
2022-08-11T17:14:16.834Z,101333.78
2022-08-11T17:16:49.050Z,101330.00
2022-08-11T17:20:41.170Z,101328.75
2022-08-11T17:22:38.861Z,101328.53
2022-08-11T17:25:08.240Z,101316.63
2022-08-11T17:27:35.574Z,101326.06
2022-08-11T17:30:07.474Z,101327.19
2022-08-11T17:32:57.244Z,101327.47
2022-08-11T17:35:35.987Z,101320.19
2022-08-11T17:38:06.725Z,101312.38
2022-08-11T17:40:38.621Z,101322.69
2022-08-11T17:43:27.084Z,101328.53
2022-08-11T17:46:14.437Z,101328.31
2022-08-11T17:48:47.780Z,101324.03
2022-08-11T17:51:38.606Z,101328.91
2022-08-11T17:54:26.149Z,101331.31
2022-08-11T17:57:20.212Z,101328.63
2022-08-11T17:59:53.867Z,101328.94
2022-08-11T18:02:44.339Z,101330.50
2022-08-11T18:05:13.758Z,101333.00
2022-08-11T18:08:02.136Z,101337.59
2022-08-11T18:10:51.759Z,101336.84
2022-08-11T18:13:42.726Z,101338.22
2022-08-11T18:16:28.397Z,101335.25
2022-08-11T18:19:14.128Z,101340.63
2022-08-11T18:22:15.138Z,101343.59
2022-08-11T18:25:08.962Z,101347.38
2022-08-11T18:27:57.927Z,101345.22
2022-08-11T18:30:43.981Z,101340.13
2022-08-11T18:34:05.865Z,101338.03
2022-08-11T18:36:46.659Z,101341.53
2022-08-11T18:39:33.553Z,101341.22
2022-08-11T18:42:28.996Z,101340.47
2022-08-11T18:45:22.896Z,101346.63
2022-08-11T18:48:11.575Z,101341.25
2022-08-11T18:51:30.983Z,101347.50
2022-08-11T18:54:13.474Z,101340.25
2022-08-11T18:57:00.775Z,101337.34
2022-08-11T18:59:48.202Z,101357.19
2022-08-11T19:02:49.357Z,101356.38
2022-08-11T19:06:08.362Z,101357.44
2022-08-11T19:08:49.945Z,101361.78
2022-08-11T19:11:36.515Z,101371.44
2022-08-11T19:14:30.307Z,101365.25
2022-08-11T19:17:43.801Z,101371.97
2022-08-11T19:20:27.006Z,101378.16
2022-08-11T19:23:14.871Z,101379.78
2022-08-11T19:26:02.208Z,101384.31
2022-08-11T19:28:48.103Z,101389.69
2022-08-11T19:31:33.876Z,101385.69
2022-08-11T19:34:21.264Z,101393.19
2022-08-11T19:37:07.276Z,101397.16
2022-08-11T19:39:54.163Z,101389.16
2022-08-11T19:42:41.109Z,101396.16
2022-08-11T19:45:26.966Z,101389.91
2022-08-11T19:48:31.073Z,101391.44
2022-08-11T19:51:18.172Z,101394.75
2022-08-11T19:54:06.550Z,101388.53
2022-08-11T19:56:52.557Z,101394.72
2022-08-11T19:59:38.886Z,101393.63
2022-08-11T20:02:24.837Z,101402.50
2022-08-11T20:05:10.013Z,101397.09
2022-08-11T20:07:55.884Z,101394.34
2022-08-11T20:10:43.365Z,101395.22
2022-08-11T20:13:30.923Z,101394.41
2022-08-11T20:16:17.811Z,101391.59
2022-08-11T20:19:05.696Z,101392.47
2022-08-11T20:21:53.826Z,101388.34
2022-08-11T20:24:40.001Z,101386.50
2022-08-11T20:27:27.059Z,101393.13
2022-08-11T20:30:14.657Z,101391.84
2022-08-11T20:33:01.058Z,101394.25
2022-08-11T20:35:47.007Z,101396.06
2022-08-11T20:38:34.684Z,101402.81
2022-08-11T20:41:22.547Z,101402.19
2022-08-11T20:44:10.020Z,101404.31
2022-08-11T20:47:00.281Z,101403.00
2022-08-11T20:49:53.740Z,101412.00
2022-08-11T20:52:47.477Z,101406.09
2022-08-11T20:59:13.745Z,101399.94
2022-08-11T21:01:51.917Z,101400.75
2022-08-11T21:04:37.714Z,101412.75
2022-08-11T21:07:41.373Z,101412.28
2022-08-11T21:10:30.312Z,101412.88
2022-08-11T21:13:25.455Z,101416.84
2022-08-11T21:16:21.289Z,101410.75
2022-08-11T21:19:17.888Z,101411.88
2022-08-11T21:22:05.160Z,101409.75
2022-08-11T21:24:51.718Z,101411.22
2022-08-11T21:27:39.854Z,101405.50
2022-08-11T21:30:25.413Z,101408.75
2022-08-11T21:33:11.859Z,101408.03
2022-08-11T21:35:57.166Z,101406.94
2022-08-11T21:38:43.527Z,101406.78
2022-08-11T21:41:29.773Z,101402.13
2022-08-11T21:44:16.774Z,101406.63
2022-08-11T21:47:03.021Z,101407.00
2022-08-11T21:49:51.106Z,101397.59
2022-08-11T21:52:36.476Z,101410.31
2022-08-11T21:55:21.778Z,101403.09
2022-08-11T21:58:07.942Z,101410.31
2022-08-11T22:00:53.214Z,101412.50
2022-08-11T22:03:46.420Z,101402.03
2022-08-11T22:06:35.841Z,101401.06
2022-08-11T22:09:20.933Z,101401.63
2022-08-11T22:12:29.569Z,101394.25
2022-08-11T22:15:12.530Z,101402.13
2022-08-11T22:17:58.273Z,101401.06
2022-08-11T22:20:45.586Z,101398.13
2022-08-11T22:23:36.271Z,101403.84
2022-08-11T22:26:23.201Z,101405.25
2022-08-11T22:29:09.456Z,101401.97
2022-08-11T22:31:56.385Z,101403.81
2022-08-11T22:34:52.545Z,101405.06
2022-08-11T22:37:39.234Z,101404.66
2022-08-11T22:40:25.782Z,101399.78
2022-08-11T22:43:11.075Z,101401.75
2022-08-11T22:45:56.437Z,101406.09
2022-08-11T22:48:49.121Z,101400.97
2022-08-11T22:51:38.336Z,101402.28
2022-08-11T22:54:24.233Z,101404.66
2022-08-11T22:57:09.854Z,101406.31
2022-08-11T22:59:56.162Z,101398.19
2022-08-11T23:02:42.111Z,101398.28
2022-08-11T23:05:28.059Z,101408.38
2022-08-11T23:08:15.465Z,101410.94
2022-08-11T23:11:02.330Z,101405.22
2022-08-11T23:13:50.698Z,101403.28
2022-08-11T23:16:37.753Z,101397.09
2022-08-11T23:20:11.387Z,101397.47
2022-08-11T23:22:37.198Z,101399.41
2022-08-11T23:25:34.324Z,101401.22
2022-08-11T23:28:20.361Z,101397.50
2022-08-11T23:31:08.865Z,101403.56
2022-08-11T23:33:58.286Z,101399.97
2022-08-11T23:36:47.601Z,101395.66
2022-08-11T23:39:34.191Z,101395.81
2022-08-11T23:42:24.209Z,101396.34
2022-08-11T23:45:09.906Z,101398.94
2022-08-11T23:47:57.669Z,101393.94
2022-08-11T23:50:44.000Z,101399.50
2022-08-11T23:53:31.208Z,101394.66
2022-08-11T23:56:17.220Z,101397.00
2022-08-11T23:59:08.969Z,101394.84
